createdAt,value
2022-08-17T00:01:51.935Z,99560.72
2022-08-17T00:04:21.391Z,99564.28
2022-08-17T00:06:53.310Z,99563.31
2022-08-17T00:09:21.731Z,99556.03
2022-08-17T00:12:41.774Z,99549.75
2022-08-17T00:14:38.878Z,99551.53
2022-08-17T00:17:07.066Z,99556.41
2022-08-17T00:19:35.636Z,99559.13
2022-08-17T00:22:35.328Z,99555.66
2022-08-17T00:24:55.178Z,99549.66
2022-08-17T00:27:23.424Z,99559.13
2022-08-17T00:29:52.435Z,99560.88
2022-08-17T00:33:11.876Z,99554.22
2022-08-17T00:35:11.570Z,99555.09
2022-08-17T00:37:41.668Z,99551.88
2022-08-17T00:40:13.812Z,99549.94
2022-08-17T00:42:43.336Z,99552.84
2022-08-17T00:45:14.070Z,99543.78
2022-08-17T00:47:44.042Z,99547.66
2022-08-17T00:50:17.172Z,99540.88
2022-08-17T00:52:49.403Z,99548.84
2022-08-17T00:55:18.514Z,99552.06
2022-08-17T00:57:55.078Z,99549.69
2022-08-17T01:00:28.681Z,99559.91
2022-08-17T01:03:00.160Z,99559.63
2022-08-17T01:05:32.073Z,99564.22
2022-08-17T01:08:03.553Z,99567.81
2022-08-17T01:10:59.866Z,99561.41
2022-08-17T01:13:39.627Z,99562.91
2022-08-17T01:16:15.942Z,99561.19
2022-08-17T01:18:45.514Z,99559.75
2022-08-17T01:21:21.323Z,99561.00
2022-08-17T01:23:50.993Z,99564.78
2022-08-17T01:26:19.392Z,99566.34
2022-08-17T01:28:53.888Z,99562.38
2022-08-17T01:31:24.557Z,99560.22
2022-08-17T01:33:52.892Z,99570.66
2022-08-17T01:36:21.090Z,99573.69
2022-08-17T01:38:51.174Z,99579.53
2022-08-17T01:41:22.938Z,99578.88
2022-08-17T01:43:55.342Z,99575.09
2022-08-17T01:46:26.973Z,99576.13
2022-08-17T01:48:55.618Z,99577.66
2022-08-17T01:51:24.103Z,99574.44
2022-08-17T01:53:58.209Z,99579.50
2022-08-17T01:56:27.891Z,99576.41
2022-08-17T01:58:55.979Z,99583.69
2022-08-17T02:01:26.563Z,99575.03
2022-08-17T02:04:01.076Z,99576.72
2022-08-17T02:06:52.878Z,99572.75
2022-08-17T02:09:23.227Z,99571.66
2022-08-17T02:11:54.321Z,99566.84
2022-08-17T02:14:23.583Z,99576.13
2022-08-17T02:16:52.133Z,99570.78
2022-08-17T02:19:20.779Z,99567.97
2022-08-17T02:21:51.305Z,99576.56
2022-08-17T02:25:00.251Z,99567.91
2022-08-17T02:27:12.484Z,99567.81
2022-08-17T02:29:41.312Z,99567.88
2022-08-17T02:32:20.781Z,99569.44
2022-08-17T02:34:58.311Z,99568.41
2022-08-17T02:37:26.623Z,99564.88
2022-08-17T02:39:58.548Z,99569.66
2022-08-17T02:42:29.171Z,99568.94
2022-08-17T02:44:57.296Z,99566.63
2022-08-17T02:47:25.637Z,99563.19
2022-08-17T02:49:56.926Z,99566.19
2022-08-17T02:52:42.978Z,99565.34
2022-08-17T02:55:16.661Z,99571.00
2022-08-17T02:57:45.374Z,99575.09
2022-08-17T03:00:18.209Z,99565.78
2022-08-17T03:02:46.836Z,99575.59
2022-08-17T03:05:17.388Z,99571.00
2022-08-17T03:07:46.247Z,99568.69
2022-08-17T03:10:17.281Z,99568.69
2022-08-17T03:12:46.612Z,99565.97
2022-08-17T03:15:17.519Z,99573.97
2022-08-17T03:17:46.586Z,99569.72
2022-08-17T03:20:17.233Z,99575.31
2022-08-17T03:22:48.093Z,99575.47
2022-08-17T03:25:26.288Z,99576.66
2022-08-17T03:27:55.355Z,99589.03
2022-08-17T03:30:24.794Z,99590.53
2022-08-17T03:32:55.837Z,99595.81
2022-08-17T03:35:26.508Z,99594.13
2022-08-17T03:38:00.725Z,99594.78
2022-08-17T03:40:55.200Z,99595.44
2022-08-17T03:43:21.301Z,99593.63
2022-08-17T03:46:10.917Z,99595.81
2022-08-17T03:49:13.263Z,99599.34
2022-08-17T03:51:58.948Z,99609.69
2022-08-17T03:54:44.900Z,99609.34
2022-08-17T03:57:15.192Z,99611.38
2022-08-17T03:59:44.968Z,99611.38
2022-08-17T04:02:18.674Z,99617.31
2022-08-17T04:04:46.940Z,99612.69
2022-08-17T04:07:16.138Z,99600.81
2022-08-17T04:09:45.088Z,99605.75
2022-08-17T04:12:16.309Z,99601.16
2022-08-17T04:14:53.223Z,99609.00
2022-08-17T04:17:24.750Z,99612.75
2022-08-17T04:19:55.089Z,99611.63
2022-08-17T04:22:30.534Z,99617.94
2022-08-17T04:25:14.913Z,99617.69
2022-08-17T04:27:44.528Z,99619.31
2022-08-17T04:30:13.599Z,99624.47
2022-08-17T04:33:04.698Z,99619.59
2022-08-17T04:35:37.553Z,99625.22
2022-08-17T04:38:06.268Z,99626.34
2022-08-17T04:40:51.806Z,99625.75
2022-08-17T04:43:23.764Z,99624.00
2022-08-17T04:45:56.179Z,99624.25
2022-08-17T04:48:29.945Z,99621.00
2022-08-17T04:51:06.469Z,99629.06
2022-08-17T04:53:34.357Z,99623.88
2022-08-17T04:56:02.579Z,99632.09
2022-08-17T04:58:32.121Z,99627.50
2022-08-17T05:01:00.085Z,99631.97
2022-08-17T05:03:28.175Z,99638.13
2022-08-17T05:05:56.026Z,99637.97
2022-08-17T05:08:23.918Z,99642.69
2022-08-17T05:10:52.093Z,99646.66
2022-08-17T05:13:21.353Z,99648.25
2022-08-17T05:15:54.914Z,99650.81
2022-08-17T05:18:24.553Z,99649.44
2022-08-17T05:20:52.975Z,99657.53
2022-08-17T05:23:22.024Z,99654.31
2022-08-17T05:25:50.715Z,99644.81
2022-08-17T05:28:22.917Z,99639.75
2022-08-17T05:30:56.292Z,99647.63
2022-08-17T05:33:25.401Z,99643.09
2022-08-17T05:35:54.503Z,99643.31
2022-08-17T05:38:24.828Z,99645.19
2022-08-17T05:40:53.229Z,99644.53
2022-08-17T05:43:22.496Z,99643.78
2022-08-17T05:45:55.828Z,99645.63
2022-08-17T05:48:35.649Z,99647.28
2022-08-17T05:51:12.036Z,99650.16
2022-08-17T05:53:46.273Z,99643.19
2022-08-17T05:56:29.856Z,99650.88
2022-08-17T05:59:03.927Z,99653.47
2022-08-17T06:01:36.314Z,99652.31
2022-08-17T06:04:16.844Z,99654.72
2022-08-17T06:06:50.137Z,99655.00
2022-08-17T06:09:33.438Z,99651.34
2022-08-17T06:12:07.725Z,99660.84
2022-08-17T06:14:48.373Z,99653.69
2022-08-17T06:17:19.188Z,99665.69
2022-08-17T06:19:52.187Z,99668.91
2022-08-17T06:22:21.363Z,99658.69
2022-08-17T06:24:51.903Z,99658.88
2022-08-17T06:27:24.714Z,99654.25
2022-08-17T06:29:56.810Z,99655.13
2022-08-17T06:32:26.080Z,99663.78
2022-08-17T06:34:55.408Z,99669.50
2022-08-17T06:37:33.561Z,99667.34
2022-08-17T06:40:13.232Z,99663.72
2022-08-17T06:42:58.809Z,99663.41
2022-08-17T06:45:36.971Z,99658.75
2022-08-17T06:48:08.510Z,99651.44
2022-08-17T06:50:39.973Z,99658.94
2022-08-17T06:53:14.223Z,99661.66
2022-08-17T06:55:46.562Z,99657.06
2022-08-17T06:58:16.914Z,99658.41
2022-08-17T07:00:46.434Z,99660.19
2022-08-17T07:03:19.050Z,99663.50
2022-08-17T07:05:51.460Z,99666.44
2022-08-17T07:08:29.174Z,99668.88
2022-08-17T07:11:02.266Z,99670.13
2022-08-17T07:13:38.993Z,99670.81
2022-08-17T07:16:15.084Z,99670.41
2022-08-17T07:18:43.804Z,99668.50
2022-08-17T07:21:25.829Z,99667.47
2022-08-17T07:24:02.321Z,99667.59
2022-08-17T07:26:30.678Z,99671.53
2022-08-17T07:29:00.708Z,99674.50
2022-08-17T07:31:30.498Z,99671.91
2022-08-17T07:34:06.709Z,99671.66
2022-08-17T07:36:36.026Z,99668.31
2022-08-17T07:39:04.884Z,99671.16
2022-08-17T07:41:58.680Z,99674.47
2022-08-17T07:44:23.232Z,99664.34
2022-08-17T07:47:12.759Z,99666.56
2022-08-17T07:49:44.661Z,99666.19
2022-08-17T07:52:51.185Z,99662.19
2022-08-17T07:55:27.513Z,99666.13
2022-08-17T07:57:57.444Z,99667.75
2022-08-17T08:00:31.544Z,99670.38
2022-08-17T08:03:18.295Z,99680.06
2022-08-17T08:05:51.086Z,99678.97
2022-08-17T08:08:25.535Z,99676.66
2022-08-17T08:10:59.225Z,99673.25
2022-08-17T08:13:29.635Z,99673.06
2022-08-17T08:16:13.300Z,99668.66
2022-08-17T08:18:55.041Z,99670.81
2022-08-17T08:21:30.023Z,99669.06
2022-08-17T08:24:02.271Z,99671.72
2022-08-17T08:26:34.941Z,99669.03
2022-08-17T08:29:06.880Z,99674.53
2022-08-17T08:31:42.621Z,99674.25
2022-08-17T08:34:46.336Z,99666.63
2022-08-17T08:37:14.941Z,99671.50
2022-08-17T08:39:51.048Z,99677.63
2022-08-17T08:42:24.702Z,99676.44
2022-08-17T08:44:59.981Z,99672.44
2022-08-17T08:47:40.281Z,99667.00
2022-08-17T08:50:37.524Z,99667.41
2022-08-17T08:53:19.029Z,99671.13
2022-08-17T08:55:52.993Z,99661.16
2022-08-17T08:58:31.802Z,99656.59
2022-08-17T09:01:16.970Z,99660.78
2022-08-17T09:04:10.895Z,99660.19
2022-08-17T09:06:49.323Z,99663.13
2022-08-17T09:09:21.884Z,99663.09
2022-08-17T09:12:02.320Z,99658.22
2022-08-17T09:14:44.922Z,99663.94
2022-08-17T09:17:16.558Z,99662.06
2022-08-17T09:19:52.395Z,99660.63
2022-08-17T09:22:26.324Z,99653.91
2022-08-17T09:24:58.436Z,99657.53
2022-08-17T09:27:29.857Z,99668.56
2022-08-17T09:30:00.581Z,99664.97
2022-08-17T09:32:32.554Z,99665.63
2022-08-17T09:35:02.758Z,99655.03
2022-08-17T09:37:33.740Z,99645.97
2022-08-17T09:40:14.891Z,99655.91
2022-08-17T09:42:48.733Z,99648.84
2022-08-17T09:45:29.079Z,99652.00
2022-08-17T09:47:59.857Z,99648.38
2022-08-17T09:51:03.440Z,99647.31
2022-08-17T09:53:19.679Z,99640.44
2022-08-17T09:55:53.141Z,99639.94
2022-08-17T09:58:29.092Z,99637.50
2022-08-17T10:01:03.619Z,99634.38
2022-08-17T10:03:41.493Z,99642.41
2022-08-17T10:06:13.804Z,99637.03
2022-08-17T10:08:45.658Z,99644.00
2022-08-17T10:11:33.436Z,99639.34
2022-08-17T10:14:36.869Z,99637.31
2022-08-17T10:17:00.385Z,99640.44
2022-08-17T10:19:35.710Z,99635.06
2022-08-17T10:22:34.825Z,99640.41
2022-08-17T10:25:24.839Z,99637.50
2022-08-17T10:27:59.792Z,99635.09
2022-08-17T10:30:31.994Z,99629.28
2022-08-17T10:33:01.578Z,99628.00
2022-08-17T10:35:42.041Z,99624.66
2022-08-17T10:38:19.603Z,99619.19
2022-08-17T10:40:55.336Z,99626.56
2022-08-17T10:43:32.898Z,99629.97
2022-08-17T10:46:10.432Z,99631.25
2022-08-17T10:49:11.266Z,99622.88
2022-08-17T10:51:40.961Z,99624.63
2022-08-17T10:54:28.977Z,99625.72
2022-08-17T10:56:58.818Z,99619.09
2022-08-17T10:59:47.124Z,99625.53
2022-08-17T11:02:18.923Z,99618.75
2022-08-17T11:04:52.516Z,99620.59
2022-08-17T11:07:27.954Z,99622.94
2022-08-17T11:10:10.402Z,99629.63
2022-08-17T11:12:45.058Z,99615.91
2022-08-17T11:15:22.768Z,99619.06
2022-08-17T11:18:07.617Z,99619.44
2022-08-17T11:20:54.792Z,99617.38
2022-08-17T11:23:35.130Z,99615.03
2022-08-17T11:26:08.308Z,99617.31
2022-08-17T11:28:48.675Z,99611.13
2022-08-17T11:31:38.836Z,99609.88
2022-08-17T11:34:14.465Z,99600.19
2022-08-17T11:37:02.535Z,99602.09
2022-08-17T11:39:38.450Z,99596.50
2022-08-17T11:42:11.922Z,99600.91
2022-08-17T11:44:51.393Z,99596.00
2022-08-17T11:47:39.421Z,99601.91
2022-08-17T11:50:40.428Z,99595.84
2022-08-17T11:53:29.779Z,99594.63
2022-08-17T11:56:09.582Z,99588.13
2022-08-17T11:58:38.971Z,99599.00
2022-08-17T12:01:10.011Z,99590.44
2022-08-17T12:03:55.352Z,99586.28
2022-08-17T12:06:32.104Z,99585.88
2022-08-17T12:09:03.583Z,99586.44
2022-08-17T12:11:55.381Z,99581.78
2022-08-17T12:14:40.086Z,99576.06
2022-08-17T12:17:22.433Z,99580.75
2022-08-17T12:20:14.751Z,99569.41
2022-08-17T12:22:47.058Z,99586.44
2022-08-17T12:25:19.131Z,99566.59
2022-08-17T12:28:04.955Z,99571.38
2022-08-17T12:30:33.918Z,99559.09
2022-08-17T12:33:03.273Z,99562.78
2022-08-17T12:35:38.979Z,99565.84
2022-08-17T12:38:26.918Z,99553.47
2022-08-17T12:40:59.109Z,99561.31
2022-08-17T12:43:30.406Z,99555.06
2022-08-17T12:46:01.067Z,99560.91
2022-08-17T12:48:58.859Z,99553.66
2022-08-17T12:51:28.921Z,99557.63
2022-08-17T12:53:57.274Z,99556.75
2022-08-17T12:56:25.551Z,99553.72
2022-08-17T12:58:55.618Z,99551.09
2022-08-17T13:01:25.196Z,99549.22
2022-08-17T13:03:57.262Z,99551.53
2022-08-17T13:06:30.225Z,99550.13
2022-08-17T13:09:08.906Z,99555.66
2022-08-17T13:11:36.849Z,99553.00
2022-08-17T13:14:10.081Z,99548.56
2022-08-17T13:16:38.323Z,99549.53
2022-08-17T13:19:08.934Z,99548.97
2022-08-17T13:21:38.020Z,99554.84
2022-08-17T13:24:08.130Z,99560.34
2022-08-17T13:26:37.982Z,99555.97
2022-08-17T13:29:06.695Z,99552.78
2022-08-17T13:31:51.196Z,99539.91
2022-08-17T13:34:34.270Z,99549.59
2022-08-17T13:37:29.598Z,99540.47
2022-08-17T13:39:59.518Z,99535.91
2022-08-17T13:42:32.338Z,99537.06
2022-08-17T13:45:00.960Z,99540.78
2022-08-17T13:47:29.071Z,99540.88
2022-08-17T13:50:00.294Z,99531.53
2022-08-17T13:52:34.205Z,99538.06
2022-08-17T13:55:04.044Z,99542.47
2022-08-17T13:57:32.143Z,99537.22
2022-08-17T14:00:10.960Z,99536.75
2022-08-17T14:02:38.932Z,99541.97
2022-08-17T14:05:08.587Z,99533.81
2022-08-17T14:07:39.913Z,99536.63
2022-08-17T14:10:11.520Z,99531.03
2022-08-17T14:12:41.146Z,99537.09
2022-08-17T14:15:09.859Z,99531.81
2022-08-17T14:17:39.275Z,99529.03
2022-08-17T14:20:11.116Z,99530.34
2022-08-17T14:22:40.041Z,99535.56
2022-08-17T14:25:10.349Z,99535.56
2022-08-17T14:27:52.336Z,99531.88
2022-08-17T14:30:22.462Z,99531.56
2022-08-17T14:32:52.017Z,99532.50
2022-08-17T14:35:23.254Z,99528.63
2022-08-17T14:37:51.533Z,99524.69
2022-08-17T14:40:24.977Z,99525.44
2022-08-17T14:42:54.424Z,99530.16
2022-08-17T14:45:30.356Z,99531.69
2022-08-17T14:48:00.685Z,99533.56
2022-08-17T14:50:30.444Z,99525.84
2022-08-17T14:53:01.589Z,99525.34
2022-08-17T14:55:31.054Z,99531.28
2022-08-17T14:57:59.467Z,99534.44
2022-08-17T15:00:28.627Z,99534.44
2022-08-17T15:02:58.123Z,99529.63
2022-08-17T15:05:26.941Z,99533.19
2022-08-17T15:08:41.614Z,99526.66
2022-08-17T15:11:14.286Z,99523.63
2022-08-17T15:13:52.880Z,99527.22
2022-08-17T15:16:21.592Z,99526.09
2022-08-17T15:18:50.174Z,99527.00
2022-08-17T15:21:18.295Z,99524.00
2022-08-17T15:23:46.671Z,99525.56
2022-08-17T15:26:16.863Z,99535.34
2022-08-17T15:28:44.865Z,99527.06
2022-08-17T15:31:31.869Z,99528.91
2022-08-17T15:34:00.149Z,99532.88
2022-08-17T15:36:28.172Z,99528.59
2022-08-17T15:38:56.147Z,99533.41
2022-08-17T15:41:27.999Z,99524.47
2022-08-17T15:43:56.416Z,99521.72
2022-08-17T15:46:25.635Z,99533.94
2022-08-17T15:48:54.900Z,99526.78
2022-08-17T15:51:24.522Z,99532.31
2022-08-17T15:53:53.645Z,99533.03
2022-08-17T15:56:21.718Z,99533.53
2022-08-17T15:58:51.017Z,99542.66
2022-08-17T16:03:01.286Z,99531.56
2022-08-17T16:04:29.969Z,99533.28
2022-08-17T16:06:55.953Z,99529.16
2022-08-17T16:09:23.858Z,99530.13
2022-08-17T16:11:53.741Z,99529.34
2022-08-17T16:14:24.838Z,99533.19
2022-08-17T16:17:00.623Z,99526.34
2022-08-17T16:19:29.964Z,99531.38
2022-08-17T16:21:57.828Z,99537.56
2022-08-17T16:24:26.105Z,99533.16
2022-08-17T16:26:55.379Z,99520.66
2022-08-17T16:29:25.190Z,99529.44
2022-08-17T16:31:53.399Z,99529.13
2022-08-17T16:34:21.490Z,99522.09
2022-08-17T16:36:54.812Z,99524.19
2022-08-17T16:39:25.153Z,99522.94
2022-08-17T16:41:53.003Z,99531.56
2022-08-17T16:44:21.867Z,99522.75
2022-08-17T16:46:51.255Z,99522.09
2022-08-17T16:49:35.466Z,99521.00
2022-08-17T16:52:09.818Z,99519.34
2022-08-17T16:54:39.312Z,99528.31
2022-08-17T16:57:07.224Z,99525.56
2022-08-17T16:59:40.935Z,99526.75
2022-08-17T17:02:14.055Z,99531.59
2022-08-17T17:04:45.834Z,99528.53
2022-08-17T17:07:20.888Z,99534.94
2022-08-17T17:09:52.656Z,99526.41
2022-08-17T17:12:59.534Z,99536.25
2022-08-17T17:15:09.632Z,99529.97
2022-08-17T17:17:40.013Z,99534.50
2022-08-17T17:20:11.945Z,99535.75
2022-08-17T17:22:45.393Z,99537.41
2022-08-17T17:25:16.157Z,99538.16
2022-08-17T17:27:47.908Z,99541.81
2022-08-17T17:30:20.792Z,99541.31
2022-08-17T17:32:51.757Z,99534.91
2022-08-17T17:35:24.097Z,99547.44
2022-08-17T17:37:53.428Z,99554.97
2022-08-17T17:40:23.776Z,99554.31
2022-08-17T17:42:53.683Z,99562.97
2022-08-17T17:45:23.231Z,99560.00
2022-08-17T17:47:53.052Z,99561.19
2022-08-17T17:50:27.752Z,99563.09
2022-08-17T17:53:02.112Z,99571.50
2022-08-17T17:55:40.784Z,99567.78
2022-08-17T17:58:21.492Z,99565.50
2022-08-17T18:00:52.127Z,99562.72
2022-08-17T18:03:26.853Z,99562.72
2022-08-17T18:06:01.266Z,99557.56
2022-08-17T18:08:43.003Z,99562.22
2022-08-17T18:11:24.488Z,99562.53
2022-08-17T18:14:00.310Z,99569.38
2022-08-17T18:16:31.996Z,99569.13
2022-08-17T18:19:01.772Z,99572.41
2022-08-17T18:21:33.427Z,99577.97
2022-08-17T18:24:02.487Z,99579.97
2022-08-17T18:26:42.058Z,99581.25
2022-08-17T18:29:31.388Z,99580.78
2022-08-17T18:32:29.318Z,99591.84
2022-08-17T18:35:00.192Z,99595.81
2022-08-17T18:37:38.899Z,99596.59
2022-08-17T18:40:31.504Z,99594.28
2022-08-17T18:43:02.863Z,99603.44
2022-08-17T18:45:35.474Z,99604.66
2022-08-17T18:48:03.610Z,99603.22
2022-08-17T18:50:39.501Z,99606.97
2022-08-17T18:53:20.801Z,99605.44
2022-08-17T18:56:16.212Z,99613.34
2022-08-17T18:58:51.169Z,99605.44
2022-08-17T19:01:20.243Z,99604.63
2022-08-17T19:03:48.304Z,99607.19
2022-08-17T19:06:19.576Z,99612.31
2022-08-17T19:08:47.492Z,99611.84
2022-08-17T19:11:20.239Z,99620.25
2022-08-17T19:13:53.297Z,99610.56
2022-08-17T19:16:25.947Z,99612.38
2022-08-17T19:18:58.181Z,99618.78
2022-08-17T19:21:30.641Z,99620.41
2022-08-17T19:24:01.701Z,99618.38
2022-08-17T19:26:54.479Z,99625.22
2022-08-17T19:29:23.649Z,99633.06
2022-08-17T19:31:52.824Z,99636.06
2022-08-17T19:34:30.089Z,99634.19
2022-08-17T19:37:07.511Z,99632.16
2022-08-17T19:39:41.278Z,99630.72
2022-08-17T19:42:13.959Z,99623.19
2022-08-17T19:44:51.529Z,99634.16
2022-08-17T19:47:50.994Z,99622.97
2022-08-17T19:50:18.878Z,99639.63
2022-08-17T19:52:55.211Z,99633.28
2022-08-17T19:55:31.619Z,99635.41
2022-08-17T19:58:04.450Z,99637.53
2022-08-17T20:00:36.063Z,99627.00
2022-08-17T20:03:07.430Z,99624.50
2022-08-17T20:05:54.464Z,99631.63
2022-08-17T20:08:27.315Z,99623.88
2022-08-17T20:10:58.042Z,99625.13
2022-08-17T20:13:36.196Z,99627.06
2022-08-17T20:16:05.396Z,99631.94
2022-08-17T20:18:36.665Z,99624.59
2022-08-17T20:21:20.453Z,99628.06
2022-08-17T20:23:53.271Z,99628.09
2022-08-17T20:26:23.371Z,99624.28
2022-08-17T20:29:09.127Z,99622.00
2022-08-17T20:31:41.983Z,99622.44
2022-08-17T20:34:30.819Z,99613.16
2022-08-17T20:37:07.308Z,99618.94
2022-08-17T20:39:39.904Z,99619.38
2022-08-17T20:42:10.284Z,99611.97
2022-08-17T20:44:40.032Z,99611.50
2022-08-17T20:47:11.106Z,99607.94
2022-08-17T20:49:49.170Z,99608.13
2022-08-17T20:52:37.120Z,99605.19
2022-08-17T20:55:06.729Z,99597.25
2022-08-17T20:57:47.388Z,99616.66
2022-08-17T21:00:40.564Z,99611.63
2022-08-17T21:03:50.402Z,99604.47
2022-08-17T21:06:18.233Z,99602.38
2022-08-17T21:08:53.359Z,99609.13
2022-08-17T21:11:56.696Z,99607.84
2022-08-17T21:14:49.035Z,99612.50
2022-08-17T21:17:31.080Z,99616.72
2022-08-17T21:20:17.386Z,99612.53
2022-08-17T21:22:55.784Z,99615.06
2022-08-17T21:25:32.553Z,99618.81
2022-08-17T21:28:10.063Z,99623.81
2022-08-17T21:30:47.573Z,99632.22
2022-08-17T21:33:23.193Z,99629.03
2022-08-17T21:35:52.599Z,99630.06
2022-08-17T21:38:22.308Z,99633.97
2022-08-17T21:40:51.062Z,99632.03
2022-08-17T21:43:24.070Z,99637.88
2022-08-17T21:45:57.689Z,99636.63
2022-08-17T21:48:27.258Z,99633.41
2022-08-17T21:51:00.803Z,99641.97
2022-08-17T21:53:33.402Z,99646.16
2022-08-17T21:56:01.827Z,99640.66
2022-08-17T21:58:32.387Z,99641.94
2022-08-17T22:01:10.142Z,99640.09
2022-08-17T22:03:38.567Z,99640.88
2022-08-17T22:06:19.849Z,99644.81
2022-08-17T22:08:58.284Z,99658.66
2022-08-17T22:11:26.139Z,99658.22
2022-08-17T22:14:05.192Z,99664.53
2022-08-17T22:16:33.574Z,99658.59
2022-08-17T22:19:01.587Z,99668.22
2022-08-17T22:21:29.545Z,99672.00
2022-08-17T22:24:03.891Z,99671.59
2022-08-17T22:26:47.371Z,99673.94
2022-08-17T22:29:30.450Z,99672.00
2022-08-17T22:31:59.700Z,99672.00
2022-08-17T22:34:27.556Z,99673.25
2022-08-17T22:37:10.349Z,99678.03
2022-08-17T22:39:41.945Z,99700.91
2022-08-17T22:42:15.376Z,99703.03
2022-08-17T22:44:50.354Z,99705.69
2022-08-17T22:47:29.661Z,99708.22
2022-08-17T22:49:59.769Z,99699.56
2022-08-17T22:52:32.872Z,99707.31
2022-08-17T22:55:20.076Z,99707.38
2022-08-17T22:58:07.976Z,99705.09
2022-08-17T23:00:38.693Z,99710.38
2022-08-17T23:03:10.658Z,99709.97
2022-08-17T23:05:38.900Z,99709.19
2022-08-17T23:08:06.785Z,99715.75
2022-08-17T23:10:36.020Z,99728.00
2022-08-17T23:13:04.343Z,99724.69
2022-08-17T23:15:33.943Z,99722.31
2022-08-17T23:18:05.215Z,99736.16
2022-08-17T23:20:37.387Z,99733.59
2022-08-17T23:23:06.669Z,99729.66
2022-08-17T23:25:35.621Z,99733.16
2022-08-17T23:28:05.156Z,99734.59
2022-08-17T23:30:34.764Z,99728.56
2022-08-17T23:33:05.483Z,99724.34
2022-08-17T23:35:40.388Z,99722.31
2022-08-17T23:38:09.564Z,99727.75
2022-08-17T23:40:37.781Z,99724.84
2022-08-17T23:43:23.405Z,99715.94
2022-08-17T23:45:53.043Z,99723.03
2022-08-17T23:48:30.334Z,99721.03
2022-08-17T23:51:09.740Z,99719.38
2022-08-17T23:53:38.232Z,99718.97
2022-08-17T23:56:09.697Z,99709.81
2022-08-17T23:58:39.447Z,99713.03
